sensor_id;sensor_type;location;lat;lon;timestamp;pressure;altitude;pressure_sealevel;temperature;humidity
44825;BME280;30542;47.928;2.138;2023-05-07T00:00:07;100245.63;;;21.57;52.80
44825;BME280;30542;47.928;2.138;2023-05-07T00:05:08;100250.97;;;21.57;52.90
44825;BME280;30542;47.928;2.138;2023-05-07T00:10:10;100260.88;;;21.56;52.82
44825;BME280;30542;47.928;2.138;2023-05-07T00:15:10;100254.72;;;21.56;52.69
44825;BME280;30542;47.928;2.138;2023-05-07T00:20:11;100244.00;;;21.56;52.84
44825;BME280;30542;47.928;2.138;2023-05-07T00:25:12;100236.53;;;21.53;52.90
44825;BME280;30542;47.928;2.138;2023-05-07T00:30:12;100258.19;;;21.56;52.77
44825;BME280;30542;47.928;2.138;2023-05-07T00:35:13;100262.50;;;21.57;52.67
44825;BME280;30542;47.928;2.138;2023-05-07T00:40:13;100253.66;;;21.57;52.83
44825;BME280;30542;47.928;2.138;2023-05-07T00:45:15;100249.09;;;21.57;52.70
44825;BME280;30542;47.928;2.138;2023-05-07T00:50:16;100236.50;;;21.58;52.79
44825;BME280;30542;47.928;2.138;2023-05-07T00:55:17;100234.91;;;21.57;52.75
44825;BME280;30542;47.928;2.138;2023-05-07T01:00:18;100224.97;;;21.57;52.61
44825;BME280;30542;47.928;2.138;2023-05-07T01:05:22;100224.97;;;21.57;52.53
44825;BME280;30542;47.928;2.138;2023-05-07T01:10:23;100217.19;;;21.56;52.71
44825;BME280;30542;47.928;2.138;2023-05-07T01:15:24;100218.81;;;21.57;52.62
44825;BME280;30542;47.928;2.138;2023-05-07T01:20:24;100211.84;;;21.56;52.64
44825;BME280;30542;47.928;2.138;2023-05-07T01:25:25;100210.78;;;21.57;52.61
44825;BME280;30542;47.928;2.138;2023-05-07T01:30:26;100213.47;;;21.57;52.64
44825;BME280;30542;47.928;2.138;2023-05-07T01:35:30;100212.63;;;21.56;52.55
44825;BME280;30542;47.928;2.138;2023-05-07T01:40:33;100230.59;;;21.56;52.63
44825;BME280;30542;47.928;2.138;2023-05-07T01:45:34;100243.19;;;21.55;52.56
44825;BME280;30542;47.928;2.138;2023-05-07T01:50:35;100238.91;;;21.54;52.31
44825;BME280;30542;47.928;2.138;2023-05-07T01:55:36;100245.38;;;21.53;52.52
44825;BME280;30542;47.928;2.138;2023-05-07T02:00:37;100240.81;;;21.54;52.46
44825;BME280;30542;47.928;2.138;2023-05-07T02:05:37;100256.88;;;21.54;52.78
44825;BME280;30542;47.928;2.138;2023-05-07T02:10:38;100261.69;;;21.52;52.61
44825;BME280;30542;47.928;2.138;2023-05-07T02:15:38;100277.78;;;21.52;52.58
44825;BME280;30542;47.928;2.138;2023-05-07T02:20:38;100280.22;;;21.53;52.30
44825;BME280;30542;47.928;2.138;2023-05-07T02:25:39;100277.78;;;21.52;52.32
44825;BME280;30542;47.928;2.138;2023-05-07T02:30:39;100297.38;;;21.52;52.35
44825;BME280;30542;47.928;2.138;2023-05-07T02:35:40;100311.81;;;21.51;52.40
44825;BME280;30542;47.928;2.138;2023-05-07T02:40:41;100307.53;;;21.50;52.33
44825;BME280;30542;47.928;2.138;2023-05-07T02:45:41;100304.06;;;21.50;52.54
44825;BME280;30542;47.928;2.138;2023-05-07T02:50:43;100312.09;;;21.55;52.16
44825;BME280;30542;47.928;2.138;2023-05-07T02:55:43;100300.84;;;21.53;52.41
44825;BME280;30542;47.928;2.138;2023-05-07T03:00:44;100314.50;;;21.51;52.22
44825;BME280;30542;47.928;2.138;2023-05-07T03:05:44;100314.00;;;21.49;52.30
44825;BME280;30542;47.928;2.138;2023-05-07T03:10:44;100305.94;;;21.49;52.29
44825;BME280;30542;47.928;2.138;2023-05-07T03:15:45;100301.38;;;21.50;52.29
44825;BME280;30542;47.928;2.138;2023-05-07T03:20:46;100292.81;;;21.48;52.41
44825;BME280;30542;47.928;2.138;2023-05-07T03:25:46;100296.56;;;21.47;52.22
44825;BME280;30542;47.928;2.138;2023-05-07T03:30:46;100299.00;;;21.48;52.48
44825;BME280;30542;47.928;2.138;2023-05-07T03:35:47;100294.72;;;21.42;52.43
44825;BME280;30542;47.928;2.138;2023-05-07T03:40:47;100307.03;;;21.48;52.39
44825;BME280;30542;47.928;2.138;2023-05-07T03:45:47;100297.38;;;21.47;52.29
44825;BME280;30542;47.928;2.138;2023-05-07T03:50:48;100295.47;;;21.48;52.43
44825;BME280;30542;47.928;2.138;2023-05-07T03:55:48;100298.16;;;21.48;52.18
44825;BME280;30542;47.928;2.138;2023-05-07T04:00:48;100311.56;;;21.48;52.26
44825;BME280;30542;47.928;2.138;2023-05-07T04:05:49;100321.47;;;21.47;52.40
44825;BME280;30542;47.928;2.138;2023-05-07T04:10:54;100303.84;;;21.41;52.31
44825;BME280;30542;47.928;2.138;2023-05-07T04:15:55;100310.25;;;21.45;52.30
44825;BME280;30542;47.928;2.138;2023-05-07T04:20:56;100312.66;;;21.47;52.48
44825;BME280;30542;47.928;2.138;2023-05-07T04:25:56;100321.47;;;21.47;52.42
44825;BME280;30542;47.928;2.138;2023-05-07T04:30:57;100320.69;;;21.47;52.40
44825;BME280;30542;47.928;2.138;2023-05-07T04:35:58;100325.25;;;21.46;52.42
44825;BME280;30542;47.928;2.138;2023-05-07T04:41:03;100324.72;;;21.44;52.41
44825;BME280;30542;47.928;2.138;2023-05-07T04:46:04;100345.09;;;21.45;52.35
44825;BME280;30542;47.928;2.138;2023-05-07T04:51:04;100346.69;;;21.46;52.26
44825;BME280;30542;47.928;2.138;2023-05-07T04:56:05;100351.25;;;21.46;52.34
44825;BME280;30542;47.928;2.138;2023-05-07T05:01:05;100356.59;;;21.46;52.29
44825;BME280;30542;47.928;2.138;2023-05-07T05:06:06;100355.00;;;21.45;52.09
44825;BME280;30542;47.928;2.138;2023-05-07T05:11:06;100363.84;;;21.45;52.43
44825;BME280;30542;47.928;2.138;2023-05-07T05:16:06;100363.84;;;21.45;52.54
44825;BME280;30542;47.928;2.138;2023-05-07T05:21:07;100367.59;;;21.44;52.42
44825;BME280;30542;47.928;2.138;2023-05-07T05:26:07;100364.66;;;21.41;52.33
44825;BME280;30542;47.928;2.138;2023-05-07T05:31:08;100374.03;;;21.43;52.49
44825;BME280;30542;47.928;2.138;2023-05-07T05:36:11;100379.38;;;21.43;52.51
44825;BME280;30542;47.928;2.138;2023-05-07T05:41:13;100372.41;;;21.42;53.37
44825;BME280;30542;47.928;2.138;2023-05-07T05:46:13;100388.50;;;21.42;52.65
44825;BME280;30542;47.928;2.138;2023-05-07T05:51:13;100387.69;;;21.42;52.54
44825;BME280;30542;47.928;2.138;2023-05-07T05:56:14;100398.13;;;21.43;52.58
44825;BME280;30542;47.928;2.138;2023-05-07T06:01:15;100398.13;;;21.43;52.48
44825;BME280;30542;47.928;2.138;2023-05-07T06:06:15;100390.38;;;21.42;52.50
44825;BME280;30542;47.928;2.138;2023-05-07T06:11:15;100399.75;;;21.39;52.58
44825;BME280;30542;47.928;2.138;2023-05-07T06:16:16;100405.09;;;21.39;52.82
44825;BME280;30542;47.928;2.138;2023-05-07T06:21:16;100405.66;;;21.41;53.03
44825;BME280;30542;47.928;2.138;2023-05-07T06:26:16;100407.25;;;21.42;52.75
44825;BME280;30542;47.928;2.138;2023-05-07T06:31:19;100413.16;;;21.39;52.97
44825;BME280;30542;47.928;2.138;2023-05-07T06:36:22;100416.38;;;21.36;52.84
44825;BME280;30542;47.928;2.138;2023-05-07T06:41:22;100414.47;;;21.31;53.23
44825;BME280;30542;47.928;2.138;2023-05-07T06:46:25;100417.72;;;21.33;53.36
44825;BME280;30542;47.928;2.138;2023-05-07T06:51:25;100415.31;;;21.37;53.12
44825;BME280;30542;47.928;2.138;2023-05-07T06:56:26;100416.91;;;21.38;53.19
44825;BME280;30542;47.928;2.138;2023-05-07T07:01:27;100421.97;;;21.40;53.37
44825;BME280;30542;47.928;2.138;2023-05-07T07:06:28;100423.88;;;21.39;53.58
44825;BME280;30542;47.928;2.138;2023-05-07T07:11:28;100426.03;;;21.37;53.42
44825;BME280;30542;47.928;2.138;2023-05-07T07:16:28;100418.25;;;21.35;53.45
44825;BME280;30542;47.928;2.138;2023-05-07T07:21:29;100435.16;;;21.36;53.54
44825;BME280;30542;47.928;2.138;2023-05-07T07:26:30;100432.47;;;21.36;53.38
44825;BME280;30542;47.928;2.138;2023-05-07T07:31:30;100438.63;;;21.37;53.63
44825;BME280;30542;47.928;2.138;2023-05-07T07:36:30;100450.38;;;21.35;53.54
44825;BME280;30542;47.928;2.138;2023-05-07T07:41:31;100454.16;;;21.34;53.65
44825;BME280;30542;47.928;2.138;2023-05-07T07:46:31;100452.84;;;21.32;53.91
44825;BME280;30542;47.928;2.138;2023-05-07T07:51:31;100454.44;;;21.33;54.06
44825;BME280;30542;47.928;2.138;2023-05-07T07:56:32;100464.06;;;21.34;54.38
44825;BME280;30542;47.928;2.138;2023-05-07T08:01:33;100459.22;;;21.26;54.67
44825;BME280;30542;47.928;2.138;2023-05-07T08:06:34;100469.13;;;21.30;54.57
44825;BME280;30542;47.928;2.138;2023-05-07T08:11:34;100481.72;;;21.30;54.86
44825;BME280;30542;47.928;2.138;2023-05-07T08:16:35;100487.88;;;21.30;55.33
44825;BME280;30542;47.928;2.138;2023-05-07T08:21:38;100479.63;;;21.32;55.11
44825;BME280;30542;47.928;2.138;2023-05-07T08:26:39;100483.09;;;21.32;54.88
44825;BME280;30542;47.928;2.138;2023-05-07T08:31:40;100471.25;;;21.23;55.11
44825;BME280;30542;47.928;2.138;2023-05-07T08:36:40;100499.97;;;21.38;54.88
44825;BME280;30542;47.928;2.138;2023-05-07T08:41:44;100497.81;;;21.35;54.95
44825;BME280;30542;47.928;2.138;2023-05-07T08:46:47;100501.28;;;21.35;54.85
44825;BME280;30542;47.928;2.138;2023-05-07T08:51:49;100505.84;;;21.35;55.18
44825;BME280;30542;47.928;2.138;2023-05-07T08:56:50;100509.09;;;21.37;55.04
44825;BME280;30542;47.928;2.138;2023-05-07T09:01:50;100507.22;;;21.38;55.17
44825;BME280;30542;47.928;2.138;2023-05-07T09:06:51;100477.72;;;21.17;55.47
44825;BME280;30542;47.928;2.138;2023-05-07T09:11:56;100512.56;;;21.43;55.74
44825;BME280;30542;47.928;2.138;2023-05-07T09:16:58;100519.78;;;21.47;56.35
44825;BME280;30542;47.928;2.138;2023-05-07T09:22:02;100516.84;;;21.49;56.40
44825;BME280;30542;47.928;2.138;2023-05-07T09:27:04;100509.88;;;21.43;56.41
44825;BME280;30542;47.928;2.138;2023-05-07T09:32:05;100521.41;;;21.48;56.52
44825;BME280;30542;47.928;2.138;2023-05-07T09:37:06;100520.06;;;21.51;56.36
44825;BME280;30542;47.928;2.138;2023-05-07T09:42:07;100520.63;;;21.53;56.31
44825;BME280;30542;47.928;2.138;2023-05-07T09:47:08;100520.34;;;21.54;56.02
44825;BME280;30542;47.928;2.138;2023-05-07T09:52:08;100514.97;;;21.54;56.17
44825;BME280;30542;47.928;2.138;2023-05-07T09:57:11;100517.38;;;21.56;55.95
44825;BME280;30542;47.928;2.138;2023-05-07T10:02:14;100519.00;;;21.57;56.10
44825;BME280;30542;47.928;2.138;2023-05-07T10:07:16;100521.94;;;21.55;56.03
44825;BME280;30542;47.928;2.138;2023-05-07T10:12:17;100520.34;;;21.54;56.15
44825;BME280;30542;47.928;2.138;2023-05-07T10:17:19;100523.00;;;21.54;56.15
44825;BME280;30542;47.928;2.138;2023-05-07T10:22:20;100524.09;;;21.58;55.71
44825;BME280;30542;47.928;2.138;2023-05-07T10:27:22;100517.63;;;21.59;55.98
44825;BME280;30542;47.928;2.138;2023-05-07T10:32:35;100525.44;;;21.61;56.00
44825;BME280;30542;47.928;2.138;2023-05-07T10:37:37;100528.13;;;21.61;56.05
44825;BME280;30542;47.928;2.138;2023-05-07T10:42:37;100531.59;;;21.62;56.24
44825;BME280;30542;47.928;2.138;2023-05-07T10:48:11;100527.84;;;21.63;55.95
44825;BME280;30542;47.928;2.138;2023-05-07T11:03:21;100502.91;;;21.52;56.40
44825;BME280;30542;47.928;2.138;2023-05-07T11:08:22;100533.19;;;21.68;55.80
44825;BME280;30542;47.928;2.138;2023-05-07T11:18:50;100547.38;;;21.68;55.87
44825;BME280;30542;47.928;2.138;2023-05-07T11:28:51;100547.94;;;21.65;55.99
44825;BME280;30542;47.928;2.138;2023-05-07T11:33:53;100551.44;;;21.66;56.03
44825;BME280;30542;47.928;2.138;2023-05-07T11:38:53;100544.19;;;21.66;55.88
44825;BME280;30542;47.928;2.138;2023-05-07T11:43:58;100543.38;;;21.66;56.00
44825;BME280;30542;47.928;2.138;2023-05-07T11:49:00;100547.94;;;21.65;55.74
44825;BME280;30542;47.928;2.138;2023-05-07T11:54:03;100533.72;;;21.65;55.61
44825;BME280;30542;47.928;2.138;2023-05-07T11:59:04;100540.69;;;21.66;55.88
44825;BME280;30542;47.928;2.138;2023-05-07T12:04:05;100535.06;;;21.67;55.65
44825;BME280;30542;47.928;2.138;2023-05-07T12:09:05;100538.81;;;21.66;55.87
44825;BME280;30542;47.928;2.138;2023-05-07T12:14:07;100536.66;;;21.68;55.73
44825;BME280;30542;47.928;2.138;2023-05-07T12:19:08;100529.97;;;21.71;55.63
44825;BME280;30542;47.928;2.138;2023-05-07T12:24:14;100529.97;;;21.71;55.55
44825;BME280;30542;47.928;2.138;2023-05-07T12:29:16;100528.88;;;21.72;55.53
44825;BME280;30542;47.928;2.138;2023-05-07T12:34:16;100531.31;;;21.73;55.55
44825;BME280;30542;47.928;2.138;2023-05-07T12:39:17;100535.59;;;21.74;55.52
44825;BME280;30542;47.928;2.138;2023-05-07T12:44:17;100517.09;;;21.63;55.89
44825;BME280;30542;47.928;2.138;2023-05-07T12:49:17;100533.44;;;21.76;55.56
44825;BME280;30542;47.928;2.138;2023-05-07T12:54:31;100523.53;;;21.72;56.20
44825;BME280;30542;47.928;2.138;2023-05-07T12:59:37;100532.91;;;21.79;56.63
44825;BME280;30542;47.928;2.138;2023-05-07T13:04:37;100534.50;;;21.80;56.80
44825;BME280;30542;47.928;2.138;2023-05-07T13:09:38;100543.34;;;21.91;56.96
44825;BME280;30542;47.928;2.138;2023-05-07T13:14:38;100536.09;;;21.97;56.85
44825;BME280;30542;47.928;2.138;2023-05-07T13:19:38;100539.03;;;22.00;56.84
44825;BME280;30542;47.928;2.138;2023-05-07T13:24:39;100556.44;;;22.08;56.79
44825;BME280;30542;47.928;2.138;2023-05-07T13:29:41;100553.53;;;22.15;56.55
44825;BME280;30542;47.928;2.138;2023-05-07T13:34:42;100556.22;;;22.15;56.49
44825;BME280;30542;47.928;2.138;2023-05-07T13:39:42;100564.25;;;22.20;56.59
44825;BME280;30542;47.928;2.138;2023-05-07T13:44:42;100560.47;;;22.21;56.41
44825;BME280;30542;47.928;2.138;2023-05-07T13:49:43;100566.09;;;22.29;56.35
44825;BME280;30542;47.928;2.138;2023-05-07T13:54:44;100565.78;;;22.31;56.28
44825;BME280;30542;47.928;2.138;2023-05-07T13:59:45;100563.66;;;22.33;56.46
44825;BME280;30542;47.928;2.138;2023-05-07T14:04:45;100563.13;;;22.36;56.31
44825;BME280;30542;47.928;2.138;2023-05-07T14:09:45;100562.03;;;22.37;56.16
44825;BME280;30542;47.928;2.138;2023-05-07T14:14:46;100574.38;;;22.38;56.10
44825;BME280;30542;47.928;2.138;2023-05-07T14:19:46;100591.03;;;22.40;56.08
44825;BME280;30542;47.928;2.138;2023-05-07T14:24:49;100603.88;;;22.43;56.48
44825;BME280;30542;47.928;2.138;2023-05-07T14:29:49;100610.88;;;22.44;56.34
44825;BME280;30542;47.928;2.138;2023-05-07T14:34:51;100609.78;;;22.45;56.95
44825;BME280;30542;47.928;2.138;2023-05-07T14:39:51;100616.75;;;22.46;57.01
44825;BME280;30542;47.928;2.138;2023-05-07T14:44:51;100627.75;;;22.50;56.79
44825;BME280;30542;47.928;2.138;2023-05-07T14:49:53;100619.19;;;22.48;56.94
44825;BME280;30542;47.928;2.138;2023-05-07T14:54:54;100610.03;;;22.49;56.98
44825;BME280;30542;47.928;2.138;2023-05-07T14:59:54;100622.66;;;22.53;56.81
44825;BME280;30542;47.928;2.138;2023-05-07T15:04:55;100614.06;;;22.56;56.95
44825;BME280;30542;47.928;2.138;2023-05-07T15:09:55;100620.75;;;22.59;56.62
44825;BME280;30542;47.928;2.138;2023-05-07T15:14:55;100624.78;;;22.62;56.39
44825;BME280;30542;47.928;2.138;2023-05-07T15:19:56;100618.59;;;22.61;56.17
44825;BME280;30542;47.928;2.138;2023-05-07T15:24:56;100608.13;;;22.65;56.32
44825;BME280;30542;47.928;2.138;2023-05-07T15:29:57;100605.69;;;22.63;56.52
44825;BME280;30542;47.928;2.138;2023-05-07T15:34:57;100621.53;;;22.65;56.42
44825;BME280;30542;47.928;2.138;2023-05-07T15:39:58;100619.66;;;22.65;56.45
44825;BME280;30542;47.928;2.138;2023-05-07T15:44:58;100624.75;;;22.67;56.40
44825;BME280;30542;47.928;2.138;2023-05-07T15:50:01;100633.56;;;22.72;56.22
44825;BME280;30542;47.928;2.138;2023-05-07T15:55:02;100624.97;;;22.75;56.12
44825;BME280;30542;47.928;2.138;2023-05-07T16:00:03;100615.59;;;22.73;56.05
44825;BME280;30542;47.928;2.138;2023-05-07T16:05:06;100612.59;;;22.79;56.15
44825;BME280;30542;47.928;2.138;2023-05-07T16:10:10;100617.69;;;22.86;56.03
44825;BME280;30542;47.928;2.138;2023-05-07T16:15:10;100624.66;;;22.92;55.72
44825;BME280;30542;47.928;2.138;2023-05-07T16:20:11;100627.91;;;22.94;55.41
44825;BME280;30542;47.928;2.138;2023-05-07T16:25:12;100633.78;;;22.96;55.54
44825;BME280;30542;47.928;2.138;2023-05-07T16:30:13;100642.63;;;22.97;55.49
44825;BME280;30542;47.928;2.138;2023-05-07T16:35:14;100639.16;;;22.96;55.24
44825;BME280;30542;47.928;2.138;2023-05-07T16:40:14;100648.28;;;22.95;55.40
44825;BME280;30542;47.928;2.138;2023-05-07T16:45:15;100630.56;;;22.99;55.28
44825;BME280;30542;47.928;2.138;2023-05-07T16:50:15;100627.31;;;22.97;55.19
44825;BME280;30542;47.928;2.138;2023-05-07T16:55:15;100625.47;;;22.93;54.86
44825;BME280;30542;47.928;2.138;2023-05-07T17:00:16;100631.63;;;22.88;54.91
44825;BME280;30542;47.928;2.138;2023-05-07T17:05:17;100617.69;;;22.86;54.93
44825;BME280;30542;47.928;2.138;2023-05-07T17:10:18;100621.19;;;22.87;54.82
44825;BME280;30542;47.928;2.138;2023-05-07T17:15:19;100630.31;;;22.86;54.83
44825;BME280;30542;47.928;2.138;2023-05-07T17:20:20;100640.53;;;22.83;54.92
44825;BME280;30542;47.928;2.138;2023-05-07T17:25:21;100651.81;;;22.86;54.93
44825;BME280;30542;47.928;2.138;2023-05-07T17:30:22;100642.94;;;22.80;54.98
44825;BME280;30542;47.928;2.138;2023-05-07T17:35:22;100651.56;;;22.82;54.91
44825;BME280;30542;47.928;2.138;2023-05-07T17:40:23;100660.13;;;22.84;55.00
44825;BME280;30542;47.928;2.138;2023-05-07T17:45:23;100671.44;;;22.81;54.89
44825;BME280;30542;47.928;2.138;2023-05-07T17:50:23;100681.34;;;22.80;54.89
44825;BME280;30542;47.928;2.138;2023-05-07T17:55:24;100681.63;;;22.79;54.96
44825;BME280;30542;47.928;2.138;2023-05-07T18:00:24;100690.78;;;22.73;54.91
44825;BME280;30542;47.928;2.138;2023-05-07T18:05:25;100698.84;;;22.73;55.17
44825;BME280;30542;47.928;2.138;2023-05-07T18:10:25;100701.78;;;22.71;54.99
44825;BME280;30542;47.928;2.138;2023-05-07T18:15:27;100720.06;;;22.69;55.06
44825;BME280;30542;47.928;2.138;2023-05-07T18:20:27;100721.41;;;22.67;55.20
44825;BME280;30542;47.928;2.138;2023-05-07T18:25:27;100715.53;;;22.65;55.13
44825;BME280;30542;47.928;2.138;2023-05-07T18:30:28;100710.69;;;22.62;54.94
44825;BME280;30542;47.928;2.138;2023-05-07T18:35:30;100718.47;;;22.63;55.13
44825;BME280;30542;47.928;2.138;2023-05-07T18:40:30;100725.72;;;22.63;54.88
44825;BME280;30542;47.928;2.138;2023-05-07T18:45:32;100711.78;;;22.61;54.94
44825;BME280;30542;47.928;2.138;2023-05-07T18:50:32;100730.00;;;22.58;54.99
44825;BME280;30542;47.928;2.138;2023-05-07T18:55:33;100724.66;;;22.58;54.99
44825;BME280;30542;47.928;2.138;2023-05-07T19:00:33;100730.81;;;22.54;55.20
44825;BME280;30542;47.928;2.138;2023-05-07T19:05:33;100738.09;;;22.53;55.15
44825;BME280;30542;47.928;2.138;2023-05-07T19:10:34;100753.13;;;22.49;55.06
44825;BME280;30542;47.928;2.138;2023-05-07T19:15:34;100764.38;;;22.51;55.12
44825;BME280;30542;47.928;2.138;2023-05-07T19:20:35;100761.16;;;22.49;54.95
44825;BME280;30542;47.928;2.138;2023-05-07T19:25:35;100783.19;;;22.46;55.19
44825;BME280;30542;47.928;2.138;2023-05-07T19:30:37;100776.19;;;22.45;55.17
44825;BME280;30542;47.928;2.138;2023-05-07T19:35:38;100783.72;;;22.43;54.89
44825;BME280;30542;47.928;2.138;2023-05-07T19:40:39;100774.59;;;22.34;55.15
44825;BME280;30542;47.928;2.138;2023-05-07T19:45:39;100783.72;;;22.38;55.54
44825;BME280;30542;47.928;2.138;2023-05-07T19:50:42;100789.88;;;22.33;55.30
44825;BME280;30542;47.928;2.138;2023-05-07T19:55:42;100812.97;;;22.34;55.43
44825;BME280;30542;47.928;2.138;2023-05-07T20:00:42;100816.19;;;22.31;55.57
44825;BME280;30542;47.928;2.138;2023-05-07T20:05:45;100825.59;;;22.29;55.50
44825;BME280;30542;47.928;2.138;2023-05-07T20:10:49;100834.72;;;22.28;55.53
44825;BME280;30542;47.928;2.138;2023-05-07T20:15:50;100849.19;;;22.27;55.64
44825;BME280;30542;47.928;2.138;2023-05-07T20:20:50;100851.34;;;22.25;55.42
44825;BME280;30542;47.928;2.138;2023-05-07T20:25:50;100857.50;;;22.20;55.52
44825;BME280;30542;47.928;2.138;2023-05-07T20:30:51;100887.81;;;22.21;55.67
44825;BME280;30542;47.928;2.138;2023-05-07T20:35:51;100879.25;;;22.19;55.96
44825;BME280;30542;47.928;2.138;2023-05-07T20:40:52;100874.69;;;22.19;55.96
44825;BME280;30542;47.928;2.138;2023-05-07T20:45:59;100874.94;;;22.18;55.60
44825;BME280;30542;47.928;2.138;2023-05-07T20:51:02;100880.84;;;22.15;55.72
44825;BME280;30542;47.928;2.138;2023-05-07T20:56:03;100873.84;;;22.14;55.85
44825;BME280;30542;47.928;2.138;2023-05-07T21:01:03;100881.88;;;22.14;55.98
44825;BME280;30542;47.928;2.138;2023-05-07T21:06:05;100882.13;;;22.12;55.82
44825;BME280;30542;47.928;2.138;2023-05-07T21:11:05;100893.13;;;22.11;55.80
44825;BME280;30542;47.928;2.138;2023-05-07T21:16:07;100889.63;;;22.10;56.29
44825;BME280;30542;47.928;2.138;2023-05-07T21:21:09;100896.06;;;22.09;55.98
44825;BME280;30542;47.928;2.138;2023-05-07T21:26:16;100903.31;;;22.08;55.81
44825;BME280;30542;47.928;2.138;2023-05-07T21:31:16;100904.38;;;22.07;55.95
44825;BME280;30542;47.928;2.138;2023-05-07T21:36:17;100911.06;;;22.05;56.04
44825;BME280;30542;47.928;2.138;2023-05-07T21:41:17;100927.97;;;22.05;55.99
44825;BME280;30542;47.928;2.138;2023-05-07T21:46:19;100926.38;;;22.04;56.06
44825;BME280;30542;47.928;2.138;2023-05-07T21:51:19;100930.94;;;22.04;56.04
44825;BME280;30542;47.928;2.138;2023-05-07T21:56:20;100930.13;;;22.03;55.91
44825;BME280;30542;47.928;2.138;2023-05-07T22:01:21;100934.94;;;22.01;56.16
44825;BME280;30542;47.928;2.138;2023-05-07T22:06:21;100937.09;;;21.99;56.04
44825;BME280;30542;47.928;2.138;2023-05-07T22:11:21;100944.34;;;21.99;56.11
44825;BME280;30542;47.928;2.138;2023-05-07T22:16:22;100938.69;;;22.00;56.05
44825;BME280;30542;47.928;2.138;2023-05-07T22:21:22;100923.69;;;21.99;56.02
44825;BME280;30542;47.928;2.138;2023-05-07T22:26:23;100930.38;;;22.02;55.80
44825;BME280;30542;47.928;2.138;2023-05-07T22:31:23;100934.69;;;22.03;55.76
44825;BME280;30542;47.928;2.138;2023-05-07T22:36:23;100932.25;;;22.01;55.94
44825;BME280;30542;47.928;2.138;2023-05-07T22:41:24;100942.19;;;22.01;55.98
44825;BME280;30542;47.928;2.138;2023-05-07T22:46:25;100945.13;;;21.99;55.83
44825;BME280;30542;47.928;2.138;2023-05-07T22:51:25;100950.75;;;21.98;55.63
44825;BME280;30542;47.928;2.138;2023-05-07T22:56:26;100954.78;;;21.95;56.10
44825;BME280;30542;47.928;2.138;2023-05-07T23:01:26;100960.13;;;21.95;55.80
44825;BME280;30542;47.928;2.138;2023-05-07T23:06:27;100956.09;;;21.93;55.83
44825;BME280;30542;47.928;2.138;2023-05-07T23:11:27;100959.06;;;21.96;55.99
44825;BME280;30542;47.928;2.138;2023-05-07T23:16:27;100958.53;;;21.94;55.91
44825;BME280;30542;47.928;2.138;2023-05-07T23:21:28;100951.53;;;21.93;55.83
44825;BME280;30542;47.928;2.138;2023-05-07T23:26:28;100962.25;;;21.93;56.11
44825;BME280;30542;47.928;2.138;2023-05-07T23:31:29;100967.63;;;21.93;55.80
44825;BME280;30542;47.928;2.138;2023-05-07T23:36:29;100974.06;;;21.92;55.46
44825;BME280;30542;47.928;2.138;2023-05-07T23:41:31;100975.13;;;21.91;55.74
44825;BME280;30542;47.928;2.138;2023-05-07T23:46:32;100985.88;;;21.91;55.84
44825;BME280;30542;47.928;2.138;2023-05-07T23:51:32;100978.91;;;21.90;55.80
44825;BME280;30542;47.928;2.138;2023-05-07T23:56:32;100978.91;;;21.90;55.66
